EDHL

Lübeck Blankensee Airport

Lübeck, Germany
METAR EDHL 191450Z 21006KT 4500 BR OVC004 01/01 Q1005
Observed Flight Rules
Jan-19 @ 14:50 UTC (43 minutes ago) Instrument Flight Rules
Wind Visibility Clouds Conditions
210° at 6 knots 4,506 meters
  • Overcast at 400' AGL
  • Mist
Temperatures Readings
Current 1°C / 34°F
Dewpoint 1°C / 34°F
Humidity 100%
Altimeter 29.68" Hg
Pressure 1005 hPa
Elevation 16
METAR EDHL 191450Z 21006KT 4500 BR OVC004 01/01 Q1005
Observed Flight Rules
Jan-19 @ 14:50 UTC
(43 minutes ago)
LIFR
Wind Visibility
210° at 6 knots 4,506 meters
Clouds
  • Overcast at 400' AGL
Conditions
  • Mist
Temperature Dewpoint
1°C / 34°F 1°C / 34°F
Humidity Altimeter Pressure
100% 29.68" Hg 1005 hPa